Saint Leonard, Canada
Current Conditions -  °F | °C
As of 5:54 AM on Saturday 25 Oct 2014 (Local Time) from KCAR Reporting Station
Overcast Overcast  
Wind Chill: 37°   Ceiling: 4600
Heat Index: 41°   Visibility: 10mi
Dew Point: 35°   Wind: 6mph
Humidity: 79%   Direction: 320°NW
Pressure: 29.61"   Gusts: NA
Location:  47.15°N, 67.83°W
Report Text: KCAR 250854Z AUTO 32005KT 10SM SCT038 OVC046 05/02 A2961 RMK AO2 SLP036 T00500017 56005 $
Loading
Personal Weather Stations






























Interactive Weather Map
Tropical Storm Tracking
New forecast layout! Learn more

10-Day Weather Forecast

Advertisements
Track Severe Weather on mobile